Bonaparte, IA (52620)

03:35 PM CDT am 28. August 2016 (GMT -0500)
KIADONNE3 | | Change Station

Höhe 700 ft 40.63 °N, 91.60 °W | Updated 6 seconds ago

Scattered Clouds
Teils Wolkig
83.8 °F
gefühlte 87 °F
N
0.0
Wind Wechselnd Wind aus Ost
Gusts 0.0 mph

Heute
Max. -- | schwach -- °F
--% Regenrisiko
Gestern
Max. -- | schwach -- °F
Precip. -- inch
Druck 30.12 inch
Sichtweite 10.0 Meilen
Wolken Teils Wolkig 3500 ft
Teils Wolkig 4300 ft
Teils Wolkig 5000 ft
Hitzeindex 87 °F
Taupunkt 68 °F
Feuchtigkeit 59%
Regen 0.00 inch
Schneehöhe Nicht verfügbar..
6:30 AM 7:44 PM
Letztes Viertel, 13% visible
METAR KMPZ 282015Z AUTO 17004KT 10SM SCT035 SCT043 SCT050 32/23 A3012 RMK AO2 T03220227
Druck 30.12 inch
Sichtweite 10.0 Meilen
Wolken Teils Wolkig 3500 ft
Teils Wolkig 4300 ft
Teils Wolkig 5000 ft
Hitzeindex 87 °F
Taupunkt 68 °F
Feuchtigkeit 59%
Regen 0.00 inch
Schneehöhe Nicht verfügbar..
6:30 AM 7:44 PM
Letztes Viertel, 13% visible
METAR KMPZ 282015Z AUTO 17004KT 10SM SCT035 SCT043 SCT050 32/23 A3012 RMK AO2 T03220227

10-Day Weather Forecast

Almanac

Astronomie

Aug. 28, 2016 Aufgang Untergang
Genaue Zeit
Bürgerliche Dämmerung
Nautische Dämmerung
Astronomische Dämmerung
Mond
Länge des sichtbaren Lichts
Tageslänge
Tomorrow will be .
, % of the Moon is Illuminated

Heutige Rekorde

State Highs State Lows

Community

WunderPhotos

Upload Photos

1,935,691 Fotos hochgeladen!

WunderBlog® & News

Nearby

Luftqualität

  Luftqualität LQ Index Schadstoff
Not available.

Schneehöhe

Station Depth Höhe

Erdbebenaktivität

Stadt Distance Mag. Time & Date
Minimum magnitude displayed is 2.5.

küstennahe Wassertemperaturen

Ort Temperatur

Stations

Wetterstationen in der Umgebung

Stationsstandort Temp. Windchill Taupunkt Feuchtigkeit Wind Precip. Höhe Aktualisiert Art
                   

Watches & Warnings

There are currently no watches in effect.